createdAt,value
2023-01-12T00:01:09.000Z,6.5
2023-01-12T00:02:25.000Z,6.5
2023-01-12T00:03:41.000Z,6.5
2023-01-12T00:04:57.603Z,6.5
2023-01-12T00:06:21.000Z,6.5
2023-01-12T00:07:29.998Z,6.5
2023-01-12T00:08:46.000Z,6.5
2023-01-12T00:09:44.385Z,6.5
2023-01-12T00:11:18.000Z,6.5
2023-01-12T00:12:15.799Z,6.5
2023-01-12T00:13:49.000Z,6.5
2023-01-12T00:15:06.000Z,6.5
2023-01-12T00:16:22.000Z,6.5
2023-01-12T00:17:38.563Z,6.6
2023-01-12T00:18:36.765Z,6.6
2023-01-12T00:20:10.958Z,6.6
2023-01-12T00:21:35.000Z,6.6
2023-01-12T00:22:43.342Z,6.6
2023-01-12T00:23:59.537Z,6.6
2023-01-12T00:24:57.730Z,6.7
2023-01-12T00:26:31.914Z,6.7
2023-01-12T00:27:47.130Z,6.7
2023-01-12T00:29:11.000Z,6.7
2023-01-12T00:30:01.527Z,6.7
2023-01-12T00:31:35.000Z,6.7
2023-01-12T00:34:08.000Z,6.7
2023-01-12T00:35:24.287Z,6.7
2023-01-12T00:36:40.000Z,6.7
2023-01-12T00:37:38.686Z,6.7
2023-01-12T00:39:12.000Z,6.7
2023-01-12T00:40:29.000Z,6.7
2023-01-12T00:41:45.000Z,6.7
2023-01-12T00:42:43.459Z,6.7
2023-01-12T00:44:17.656Z,6.7
2023-01-12T00:45:33.846Z,6.7
2023-01-12T00:46:50.039Z,6.7
2023-01-12T00:48:06.000Z,6.7
2023-01-12T00:49:22.426Z,6.7
2023-01-12T00:50:38.624Z,6.7
2023-01-12T00:51:54.813Z,6.7
2023-01-12T00:52:52.031Z,6.7
2023-01-12T00:54:25.000Z,6.7
2023-01-12T00:55:23.434Z,6.7
2023-01-12T00:56:57.620Z,6.7
2023-01-12T00:58:13.820Z,6.8
2023-01-12T00:59:30.013Z,6.7
2023-01-12T01:00:46.207Z,6.7
2023-01-12T01:02:02.000Z,6.7
2023-01-12T01:03:18.580Z,6.7
2023-01-12T01:04:34.791Z,6.7
2023-01-12T01:05:32.980Z,6.7
2023-01-12T01:07:07.173Z,6.8
2023-01-12T01:08:05.367Z,6.8
2023-01-12T01:09:39.000Z,6.7
2023-01-12T01:12:11.000Z,6.7
2023-01-12T01:13:09.156Z,6.7
2023-01-12T01:14:43.347Z,6.7
2023-01-12T01:15:59.543Z,6.7
2023-01-12T01:17:15.736Z,6.7
2023-01-12T01:18:31.916Z,6.7
2023-01-12T01:19:48.122Z,6.7
2023-01-12T01:21:04.000Z,6.7
2023-01-12T01:22:20.506Z,6.7
2023-01-12T01:24:52.894Z,6.7
2023-01-12T01:25:51.088Z,6.7
2023-01-12T01:27:25.000Z,6.7
2023-01-12T01:28:41.475Z,6.7
2023-01-12T01:29:56.683Z,6.7
2023-01-12T01:31:12.880Z,6.7
2023-01-12T01:32:28.108Z,6.7
2023-01-12T01:33:44.000Z,6.7
2023-01-12T01:35:00.483Z,6.7
2023-01-12T01:36:16.686Z,6.7
2023-01-12T01:37:32.881Z,6.7
2023-01-12T01:38:48.088Z,6.7
2023-01-12T01:40:04.282Z,6.8
2023-01-12T01:41:20.476Z,6.8
2023-01-12T01:42:36.668Z,6.8
2023-01-12T01:43:52.853Z,6.8
2023-01-12T01:45:09.054Z,6.8
2023-01-12T01:46:25.246Z,6.9
2023-01-12T01:47:41.441Z,6.9
2023-01-12T01:50:13.000Z,6.9
2023-01-12T01:51:30.027Z,6.9
2023-01-12T01:52:46.214Z,6.9
2023-01-12T01:54:02.409Z,6.9
2023-01-12T01:55:17.000Z,6.9
2023-01-12T01:56:33.000Z,7
2023-01-12T01:57:50.000Z,7
2023-01-12T01:59:06.000Z,7
2023-01-12T02:00:22.393Z,7
2023-01-12T02:01:38.582Z,7
2023-01-12T02:02:54.775Z,7
2023-01-12T02:04:10.969Z,7
2023-01-12T02:05:27.166Z,7
2023-01-12T02:06:43.350Z,7
2023-01-12T02:09:14.000Z,7
2023-01-12T02:10:30.962Z,7
2023-01-12T02:11:47.143Z,7
2023-01-12T02:13:03.348Z,7
2023-01-12T02:15:34.771Z,7
2023-01-12T02:16:50.955Z,7
2023-01-12T02:18:07.148Z,7
2023-01-12T02:19:23.345Z,7
2023-01-12T02:20:39.000Z,7
2023-01-12T02:21:55.727Z,7
2023-01-12T02:23:11.920Z,7
2023-01-12T02:24:28.000Z,7
2023-01-12T02:25:44.306Z,7
2023-01-12T02:27:00.500Z,7
2023-01-12T02:28:16.000Z,7
2023-01-12T02:29:32.000Z,7
2023-01-12T02:30:49.079Z,7.1
2023-01-12T02:32:05.272Z,7.1
2023-01-12T02:33:21.465Z,7
2023-01-12T02:34:37.000Z,7
2023-01-12T02:35:53.852Z,7
2023-01-12T02:37:10.041Z,7
2023-01-12T02:38:26.380Z,7
2023-01-12T02:39:42.572Z,7
2023-01-12T02:40:58.000Z,7
2023-01-12T02:42:14.959Z,7
2023-01-12T02:43:31.153Z,7
2023-01-12T02:44:47.346Z,7
2023-01-12T02:46:03.000Z,6.9
2023-01-12T02:47:19.982Z,6.9
2023-01-12T02:48:36.239Z,6.9
2023-01-12T02:49:51.506Z,6.9
2023-01-12T02:51:07.000Z,6.9
2023-01-12T02:52:23.891Z,6.9
2023-01-12T02:53:40.085Z,6.9
2023-01-12T02:54:56.276Z,6.9
2023-01-12T02:56:20.000Z,6.9
2023-01-12T02:57:28.655Z,6.9
2023-01-12T02:58:44.855Z,6.9
2023-01-12T03:00:01.172Z,6.9
2023-01-12T03:01:17.000Z,6.9
2023-01-12T03:02:33.000Z,6.9
2023-01-12T03:03:31.751Z,6.9
2023-01-12T03:05:14.000Z,6.9
2023-01-12T03:06:22.137Z,6.9
2023-01-12T03:07:38.000Z,6.9
2023-01-12T03:08:54.524Z,6.9
2023-01-12T03:10:10.000Z,6.9
2023-01-12T03:11:26.910Z,6.9
2023-01-12T03:12:43.103Z,6.9
2023-01-12T03:13:59.285Z,6.9
2023-01-12T03:15:15.000Z,6.9
2023-01-12T03:16:13.683Z,6.9
2023-01-12T03:17:47.868Z,6.9
2023-01-12T03:19:04.070Z,6.9
2023-01-12T03:21:36.456Z,6.9
2023-01-12T03:22:52.649Z,6.9
2023-01-12T03:24:08.840Z,6.9
2023-01-12T03:25:25.028Z,7
2023-01-12T03:26:40.242Z,7
2023-01-12T03:27:56.435Z,7
2023-01-12T03:29:11.000Z,7
2023-01-12T03:30:27.000Z,7
2023-01-12T03:33:00.237Z,7
2023-01-12T03:34:24.000Z,7
2023-01-12T03:35:32.623Z,7
2023-01-12T03:36:48.820Z,7
2023-01-12T03:38:05.000Z,7
2023-01-12T03:39:21.203Z,7
2023-01-12T03:40:45.000Z,7
2023-01-12T03:41:53.000Z,7
2023-01-12T03:43:09.773Z,7
2023-01-12T03:45:42.000Z,7.1
2023-01-12T03:46:58.351Z,7.1
2023-01-12T03:48:14.541Z,7.1
2023-01-12T03:49:30.743Z,7.1
2023-01-12T03:50:47.083Z,7.1
2023-01-12T03:52:03.277Z,7.1
2023-01-12T03:53:19.000Z,7.1
2023-01-12T03:54:35.000Z,7.1
2023-01-12T03:55:51.856Z,7.1
2023-01-12T03:58:24.229Z,7.2
2023-01-12T03:59:40.000Z,7.2
2023-01-12T04:00:56.000Z,7.2
2023-01-12T04:01:54.822Z,7.2
2023-01-12T04:03:29.000Z,7.2
2023-01-12T04:04:45.194Z,7.2
2023-01-12T04:06:00.000Z,7.2
2023-01-12T04:07:16.000Z,7.2
2023-01-12T04:08:32.000Z,7.2
2023-01-12T04:09:49.010Z,7.2
2023-01-12T04:11:05.000Z,7.2
2023-01-12T04:12:29.000Z,7.2
2023-01-12T04:13:37.595Z,7.2
2023-01-12T04:15:02.000Z,7.3
2023-01-12T04:16:09.000Z,7.2
2023-01-12T04:17:34.000Z,7.3
2023-01-12T04:18:42.000Z,7.3
2023-01-12T04:19:58.000Z,7.3
2023-01-12T04:21:14.874Z,7.3
2023-01-12T04:22:31.076Z,7.2
2023-01-12T04:23:47.000Z,7.3
2023-01-12T04:25:03.466Z,7.3
2023-01-12T04:26:19.663Z,7.3
2023-01-12T04:27:35.847Z,7.3
2023-01-12T04:28:52.051Z,7.3
2023-01-12T04:30:08.000Z,7.3
2023-01-12T04:31:24.000Z,7.3
2023-01-12T04:32:40.000Z,7.3
2023-01-12T04:33:56.000Z,7.3
2023-01-12T04:36:29.221Z,7.3
2023-01-12T04:37:45.416Z,7.4
2023-01-12T04:39:01.612Z,7.4
2023-01-12T04:40:17.798Z,7.4
2023-01-12T04:41:34.000Z,7.4
2023-01-12T04:42:50.000Z,7.4
2023-01-12T04:44:14.000Z,7.4
2023-01-12T04:45:22.000Z,7.4
2023-01-12T04:46:38.783Z,7.4
2023-01-12T04:47:54.978Z,7.4
2023-01-12T04:49:11.000Z,7.4
2023-01-12T04:50:27.367Z,7.4
2023-01-12T04:51:43.557Z,7.5
2023-01-12T04:52:58.787Z,7.5
2023-01-12T04:54:15.000Z,7.5
2023-01-12T04:55:31.300Z,7.5
2023-01-12T04:56:47.000Z,7.5
2023-01-12T04:58:02.717Z,7.5
2023-01-12T04:59:18.912Z,7.6
2023-01-12T05:00:35.113Z,7.6
2023-01-12T05:01:51.000Z,7.6
2023-01-12T05:03:15.000Z,7.6
2023-01-12T05:04:23.689Z,7.6
2023-01-12T05:05:39.894Z,7.6
2023-01-12T05:06:55.115Z,7.6
2023-01-12T05:08:11.305Z,7.6
2023-01-12T05:09:27.000Z,7.6
2023-01-12T05:10:43.000Z,7.7
2023-01-12T05:11:59.893Z,7.7
2023-01-12T05:13:15.106Z,7.7
2023-01-12T05:14:39.000Z,7.7
2023-01-12T05:15:47.496Z,7.7
2023-01-12T05:17:03.692Z,7.7
2023-01-12T05:18:19.884Z,7.7
2023-01-12T05:19:36.000Z,7.7
2023-01-12T05:20:52.000Z,7.7
2023-01-12T05:22:08.470Z,7.7
2023-01-12T05:23:24.655Z,7.7
2023-01-12T05:24:40.863Z,7.7
2023-01-12T05:25:57.058Z,7.8
2023-01-12T05:27:13.239Z,7.7
2023-01-12T05:28:37.000Z,7.8
2023-01-12T05:29:45.644Z,7.8
2023-01-12T05:31:01.835Z,7.8
2023-01-12T05:32:18.035Z,7.8
2023-01-12T05:33:34.000Z,7.8
2023-01-12T05:34:50.416Z,7.8
2023-01-12T05:36:06.620Z,7.8
2023-01-12T05:37:22.816Z,7.8
2023-01-12T05:38:39.011Z,7.9
2023-01-12T05:39:55.206Z,7.9
2023-01-12T05:41:11.401Z,7.9
2023-01-12T05:42:27.000Z,7.9
2023-01-12T05:43:43.792Z,7.9
2023-01-12T05:44:59.988Z,7.9
2023-01-12T05:46:16.000Z,7.9
2023-01-12T05:47:32.378Z,7.9
2023-01-12T05:48:48.000Z,7.9
2023-01-12T05:50:04.768Z,7.9
2023-01-12T05:51:21.110Z,7.9
2023-01-12T05:52:45.000Z,7.9
2023-01-12T05:53:53.501Z,7.9
2023-01-12T05:55:09.697Z,7.9
2023-01-12T05:56:25.892Z,7.9
2023-01-12T05:57:42.000Z,8
2023-01-12T05:58:58.000Z,8
2023-01-12T06:00:14.478Z,8
2023-01-12T06:01:30.000Z,8
2023-01-12T06:02:46.869Z,8
2023-01-12T06:05:19.249Z,8
2023-01-12T06:06:43.000Z,8
2023-01-12T06:07:51.650Z,8
2023-01-12T06:09:07.845Z,8
2023-01-12T06:10:24.000Z,8
2023-01-12T06:11:40.000Z,8
2023-01-12T06:12:56.431Z,8
2023-01-12T06:14:12.000Z,8
2023-01-12T06:15:28.822Z,8
2023-01-12T06:16:45.017Z,8
2023-01-12T06:18:01.000Z,8
2023-01-12T06:19:17.407Z,8
2023-01-12T06:20:33.603Z,8
2023-01-12T06:21:49.798Z,8
2023-01-12T06:23:06.000Z,8
2023-01-12T06:24:22.000Z,8
2023-01-12T06:25:38.000Z,8
2023-01-12T06:26:54.000Z,8
2023-01-12T06:28:11.000Z,8
2023-01-12T06:29:27.000Z,8.1
2023-01-12T06:30:43.553Z,8.1
2023-01-12T06:31:58.832Z,8.1
2023-01-12T06:33:15.000Z,8.1
2023-01-12T06:34:31.000Z,8.1
2023-01-12T06:35:47.000Z,8.1
2023-01-12T06:37:03.000Z,8.1
2023-01-12T06:38:19.801Z,8.1
2023-01-12T06:39:36.000Z,8.1
2023-01-12T06:40:52.000Z,8.1
2023-01-12T06:42:08.000Z,8.1
2023-01-12T06:43:24.000Z,8.1
2023-01-12T06:44:40.786Z,8.1
2023-01-12T06:45:56.000Z,8.1
2023-01-12T06:46:55.177Z,8.1
2023-01-12T06:48:29.372Z,8.1
2023-01-12T06:49:53.000Z,8.1
2023-01-12T06:51:01.000Z,8.2
2023-01-12T06:52:17.000Z,8.2
2023-01-12T06:53:34.154Z,8.1
2023-01-12T06:54:50.349Z,8.1
2023-01-12T06:56:06.000Z,8.2
2023-01-12T06:57:22.739Z,8.2
2023-01-12T06:58:38.000Z,8.2
2023-01-12T06:59:55.000Z,8.2
2023-01-12T07:01:11.322Z,8.2
2023-01-12T07:02:27.000Z,8.2
2023-01-12T07:03:43.775Z,8.2
2023-01-12T07:05:00.026Z,8.2
2023-01-12T07:06:16.000Z,8.2
2023-01-12T07:07:32.530Z,8.2
2023-01-12T07:08:30.781Z,8.2
2023-01-12T07:10:05.035Z,8.2
2023-01-12T07:11:21.285Z,8.2
2023-01-12T07:12:36.555Z,8.2
2023-01-12T07:13:34.751Z,8.2
2023-01-12T07:15:08.000Z,8.2
2023-01-12T07:16:25.000Z,8.3
2023-01-12T07:17:41.000Z,8.2
2023-01-12T07:18:57.518Z,8.3
2023-01-12T07:20:21.000Z,8.3
2023-01-12T07:21:29.923Z,8.3
2023-01-12T07:22:28.118Z,8.3
2023-01-12T07:24:02.313Z,8.3
2023-01-12T07:25:18.508Z,8.2
2023-01-12T07:26:34.704Z,8.3
2023-01-12T07:27:50.000Z,8.3
2023-01-12T07:29:07.000Z,8.3
2023-01-12T07:30:05.289Z,8.3
2023-01-12T07:31:39.000Z,8.3
2023-01-12T07:32:37.680Z,8.3
2023-01-12T07:34:11.867Z,8.3
2023-01-12T07:35:10.192Z,8.4
2023-01-12T07:36:44.000Z,8.4
2023-01-12T07:38:00.000Z,8.4
2023-01-12T07:39:16.000Z,8.4
2023-01-12T07:40:14.974Z,8.4
2023-01-12T07:41:57.000Z,8.5
2023-01-12T07:43:05.000Z,8.5
2023-01-12T07:44:21.000Z,8.5
2023-01-12T07:45:19.755Z,8.5
2023-01-12T07:46:53.000Z,8.5
2023-01-12T07:48:10.000Z,8.5
2023-01-12T07:49:26.000Z,8.6
2023-01-12T07:50:42.000Z,8.6
2023-01-12T07:51:58.732Z,8.6
2023-01-12T07:52:56.927Z,8.6
2023-01-12T07:54:31.000Z,8.6
2023-01-12T07:55:47.000Z,8.6
2023-01-12T07:57:03.502Z,8.6
2023-01-12T07:58:19.708Z,8.6
2023-01-12T07:59:44.000Z,8.7
2023-01-12T08:00:52.000Z,8.6
2023-01-12T08:02:08.000Z,8.7
2023-01-12T08:03:24.000Z,8.7
2023-01-12T08:04:40.000Z,8.7
2023-01-12T08:05:56.000Z,8.7
2023-01-12T08:07:13.000Z,8.7
2023-01-12T08:08:11.271Z,8.8
2023-01-12T08:09:45.000Z,8.8
2023-01-12T08:10:43.662Z,8.8
2023-01-12T08:12:26.000Z,8.8
2023-01-12T08:13:16.052Z,8.8
2023-01-12T08:14:50.000Z,8.8
2023-01-12T08:16:06.000Z,8.8
2023-01-12T08:17:22.638Z,8.9
2023-01-12T08:18:20.833Z,8.9
2023-01-12T08:19:55.000Z,8.9
2023-01-12T08:20:53.223Z,8.9
2023-01-12T08:22:27.000Z,8.9
2023-01-12T08:23:25.728Z,8.9
2023-01-12T08:25:08.000Z,8.9
2023-01-12T08:26:15.000Z,8.9
2023-01-12T08:27:13.442Z,8.9
2023-01-12T08:28:47.000Z,8.9
2023-01-12T08:30:03.000Z,9
2023-01-12T08:31:20.000Z,9
2023-01-12T08:32:36.212Z,8.9
2023-01-12T08:33:52.000Z,8.9
2023-01-12T08:35:08.598Z,9
2023-01-12T08:36:24.000Z,9
2023-01-12T08:37:41.000Z,9
2023-01-12T08:38:57.000Z,9
2023-01-12T08:40:12.000Z,9
2023-01-12T08:41:28.000Z,9
2023-01-12T08:42:44.000Z,9
2023-01-12T08:44:01.000Z,9
2023-01-12T08:44:59.189Z,9
2023-01-12T08:46:15.385Z,9
2023-01-12T08:47:57.000Z,9
2023-01-12T08:49:05.000Z,9
2023-01-12T08:50:03.970Z,9
2023-01-12T08:51:38.000Z,9.1
2023-01-12T08:52:54.000Z,9.1
2023-01-12T08:54:10.000Z,9.1
2023-01-12T08:55:26.750Z,9.1
2023-01-12T08:56:42.000Z,9.2
2023-01-12T08:57:41.140Z,9.2
2023-01-12T08:59:15.335Z,9.2
2023-01-12T09:00:13.530Z,9.2
2023-01-12T09:01:55.000Z,9.2
2023-01-12T09:02:45.920Z,9.3
2023-01-12T09:04:20.000Z,9.3
2023-01-12T09:05:18.310Z,9.3
2023-01-12T09:06:52.505Z,9.3
2023-01-12T09:08:08.000Z,9.3
2023-01-12T09:09:24.000Z,9.3
2023-01-12T09:10:23.090Z,9.4
2023-01-12T09:11:57.000Z,9.4
2023-01-12T09:12:55.480Z,9.4
2023-01-12T09:14:29.000Z,9.4
2023-01-12T09:15:27.869Z,9.4
2023-01-12T09:17:02.050Z,9.4
2023-01-12T09:17:59.293Z,9.4
2023-01-12T09:19:33.000Z,9.4
2023-01-12T09:20:49.000Z,9.5
2023-01-12T09:22:05.000Z,9.5
2023-01-12T09:23:22.000Z,9.5
2023-01-12T09:24:38.000Z,9.5
2023-01-12T09:25:36.464Z,9.5
2023-01-12T09:27:10.000Z,9.5
2023-01-12T09:28:08.855Z,9.5
2023-01-12T09:29:43.000Z,9.6
2023-01-12T09:30:59.000Z,9.6
2023-01-12T09:32:15.000Z,9.6
2023-01-12T09:33:31.000Z,9.6
2023-01-12T09:34:47.000Z,9.6
2023-01-12T09:35:46.027Z,9.6
2023-01-12T09:37:20.000Z,9.6
2023-01-12T09:38:36.000Z,9.6
2023-01-12T09:39:52.000Z,9.6
2023-01-12T09:40:50.807Z,9.7
2023-01-12T09:42:25.000Z,9.7
2023-01-12T09:43:22.211Z,9.7
2023-01-12T09:44:56.407Z,9.7
2023-01-12T09:46:12.000Z,9.8
2023-01-12T09:47:28.797Z,9.8
2023-01-12T09:48:26.991Z,9.8
2023-01-12T09:50:01.000Z,9.8
2023-01-12T09:50:59.381Z,9.8
2023-01-12T09:52:33.000Z,9.8
2023-01-12T09:53:31.773Z,9.8
2023-01-12T09:55:05.968Z,9.9
2023-01-12T09:56:22.000Z,9.9
2023-01-12T09:57:38.000Z,9.9
2023-01-12T09:58:54.552Z,10
2023-01-12T10:00:10.000Z,10
2023-01-12T10:01:26.000Z,10
2023-01-12T10:02:25.137Z,10
2023-01-12T10:03:59.000Z,10.1
2023-01-12T10:05:15.000Z,10.1
2023-01-12T10:06:12.751Z,10.1
2023-01-12T10:07:46.000Z,10.1
2023-01-12T10:09:03.000Z,10.2
2023-01-12T10:10:19.339Z,10.1
2023-01-12T10:11:35.000Z,10.1
2023-01-12T10:12:51.000Z,10.2
2023-01-12T10:14:07.909Z,10.2
2023-01-12T10:15:24.000Z,10.2
2023-01-12T10:16:22.311Z,10.2
2023-01-12T10:17:56.000Z,10.2
2023-01-12T10:18:54.702Z,10.3
2023-01-12T10:20:28.000Z,10.3
2023-01-12T10:21:45.000Z,10.3
2023-01-12T10:23:01.288Z,10.3
2023-01-12T10:24:17.483Z,10.3
2023-01-12T10:25:33.000Z,10.4
2023-01-12T10:26:30.887Z,10.4
2023-01-12T10:28:05.000Z,10.4
2023-01-12T10:29:03.278Z,10.4
2023-01-12T10:30:37.000Z,10.4
2023-01-12T10:31:35.668Z,10.4
2023-01-12T10:33:09.000Z,10.4
2023-01-12T10:34:08.059Z,10.4
2023-01-12T10:35:42.000Z,10.4
2023-01-12T10:36:57.000Z,10.4
2023-01-12T10:38:13.000Z,10.4
2023-01-12T10:39:11.868Z,10.4
2023-01-12T10:40:28.064Z,10.4
2023-01-12T10:41:44.259Z,10.4
2023-01-12T10:43:18.000Z,10.4
2023-01-12T10:44:15.679Z,10.4
2023-01-12T10:45:49.995Z,10.4
2023-01-12T10:46:48.190Z,10.4
2023-01-12T10:48:30.000Z,10.3
2023-01-12T10:49:37.000Z,10.3
2023-01-12T10:50:53.805Z,10.3
2023-01-12T10:51:52.000Z,10.3
2023-01-12T10:53:26.000Z,10.3
2023-01-12T10:54:24.389Z,10.3
2023-01-12T10:55:58.577Z,10.3
2023-01-12T10:56:55.793Z,10.3
2023-01-12T10:58:29.000Z,10.3
2023-01-12T10:59:46.183Z,10.2
2023-01-12T11:01:02.380Z,10.2
2023-01-12T11:03:34.756Z,10.1
2023-01-12T11:04:32.964Z,10.1
2023-01-12T11:06:07.000Z,10
2023-01-12T11:07:23.000Z,10
2023-01-12T11:08:39.000Z,9.9
2023-01-12T11:09:37.745Z,9.9
2023-01-12T11:11:11.000Z,9.9
2023-01-12T11:12:28.000Z,9.8
2023-01-12T11:13:26.330Z,9.8
2023-01-12T11:15:00.000Z,9.7
2023-01-12T11:16:16.000Z,9.7
2023-01-12T11:17:32.918Z,9.6
2023-01-12T11:18:49.000Z,9.6
2023-01-12T11:19:47.308Z,9.6
2023-01-12T11:21:29.000Z,9.5
2023-01-12T11:22:37.000Z,9.5
2023-01-12T11:23:53.000Z,9.5
2023-01-12T11:25:10.000Z,9.5
2023-01-12T11:26:34.000Z,9.5
2023-01-12T11:28:58.000Z,9.5
2023-01-12T11:29:56.870Z,9.5
2023-01-12T11:31:31.000Z,9.4
2023-01-12T11:32:47.000Z,9.4
2023-01-12T11:34:03.000Z,9.4
2023-01-12T11:35:19.000Z,9.4
2023-01-12T11:36:35.000Z,9.4
2023-01-12T11:37:52.000Z,9.4
2023-01-12T11:39:08.239Z,9.4
2023-01-12T11:40:24.000Z,9.4
2023-01-12T11:41:40.630Z,9.4
2023-01-12T11:42:56.000Z,9.4
2023-01-12T11:44:13.000Z,9.3
2023-01-12T11:45:29.000Z,9.3
2023-01-12T11:46:27.583Z,9.3
2023-01-12T11:48:01.000Z,9.4
2023-01-12T11:49:18.000Z,9.4
2023-01-12T11:50:34.000Z,9.4
2023-01-12T11:51:50.592Z,9.5
2023-01-12T11:53:06.000Z,9.5
2023-01-12T11:54:22.000Z,9.5
2023-01-12T11:55:38.309Z,9.5
2023-01-12T11:58:10.700Z,9.5
2023-01-12T11:59:26.886Z,9.5
2023-01-12T12:00:43.091Z,9.5
2023-01-12T12:01:59.285Z,9.6
2023-01-12T12:03:15.481Z,9.6
2023-01-12T12:04:31.000Z,9.6
2023-01-12T12:05:47.872Z,9.7
2023-01-12T12:07:04.054Z,9.7
2023-01-12T12:08:19.280Z,9.7
2023-01-12T12:09:35.475Z,9.7
2023-01-12T12:10:51.670Z,9.7
2023-01-12T12:12:07.866Z,9.7
2023-01-12T12:13:24.061Z,9.8
2023-01-12T12:14:40.244Z,9.8
2023-01-12T12:15:56.452Z,9.8
2023-01-12T12:17:12.646Z,9.8
2023-01-12T12:18:28.000Z,9.8
2023-01-12T12:19:45.000Z,9.8
2023-01-12T12:21:01.000Z,9.8
2023-01-12T12:22:17.427Z,9.9
2023-01-12T12:23:33.622Z,9.9
2023-01-12T12:24:49.818Z,9.9
2023-01-12T12:26:06.000Z,9.9
2023-01-12T12:27:22.209Z,10
2023-01-12T12:28:38.000Z,10
2023-01-12T12:29:53.625Z,10
2023-01-12T12:31:09.821Z,10
2023-01-12T12:32:26.000Z,10
2023-01-12T12:33:42.000Z,10.1
2023-01-12T12:34:58.000Z,10.1
2023-01-12T12:36:14.598Z,10.1
2023-01-12T12:37:30.797Z,10.1
2023-01-12T12:38:46.993Z,10.1
2023-01-12T12:40:03.181Z,10.2
2023-01-12T12:41:19.385Z,10.2
2023-01-12T12:42:35.580Z,10.2
2023-01-12T12:43:51.000Z,10.2
2023-01-12T12:44:49.970Z,10.2
2023-01-12T12:46:24.166Z,10.2
2023-01-12T12:47:40.361Z,10.2
2023-01-12T12:48:56.557Z,10.2
2023-01-12T12:50:12.751Z,10.2
2023-01-12T12:51:28.948Z,10.2
2023-01-12T12:52:45.142Z,10.3
2023-01-12T12:54:01.338Z,10.3
2023-01-12T12:55:17.522Z,10.3
2023-01-12T12:56:33.000Z,10.3
2023-01-12T12:57:49.924Z,10.3
2023-01-12T12:59:06.118Z,10.3
2023-01-12T13:01:38.000Z,10.4
2023-01-12T13:03:03.000Z,10.4
2023-01-12T13:04:11.000Z,10.4
2023-01-12T13:05:35.000Z,10.4
2023-01-12T13:06:51.000Z,10.4
2023-01-12T13:07:59.000Z,10.4
2023-01-12T13:09:16.078Z,10.4
2023-01-12T13:10:32.000Z,10.4
2023-01-12T13:11:48.000Z,10.4
2023-01-12T13:13:04.834Z,10.4
2023-01-12T13:14:21.000Z,10.4
2023-01-12T13:15:37.324Z,10.4
2023-01-12T13:16:53.000Z,10.4
2023-01-12T13:18:09.000Z,10.5
2023-01-12T13:19:26.000Z,10.5
2023-01-12T13:20:42.000Z,10.5
2023-01-12T13:21:59.010Z,10.4
2023-01-12T13:23:15.000Z,10.4
2023-01-12T13:24:31.000Z,10.5
2023-01-12T13:25:48.000Z,10.4
2023-01-12T13:27:04.428Z,10.4
2023-01-12T13:28:20.000Z,10.4
2023-01-12T13:29:19.137Z,10.4
2023-01-12T13:30:53.000Z,10.4
2023-01-12T13:32:09.000Z,10.4
2023-01-12T13:33:26.188Z,10.4
2023-01-12T13:34:42.735Z,10.5
2023-01-12T13:35:59.000Z,10.5
2023-01-12T13:37:15.000Z,10.5
2023-01-12T13:38:31.000Z,10.5
2023-01-12T13:39:47.000Z,10.5
2023-01-12T13:41:03.000Z,10.5
2023-01-12T13:42:20.000Z,10.5
2023-01-12T13:43:36.000Z,10.5
2023-01-12T13:44:52.000Z,10.5
2023-01-12T13:46:08.892Z,10.5
2023-01-12T13:47:25.000Z,10.5
2023-01-12T13:48:41.000Z,10.5
2023-01-12T13:49:57.000Z,10.5
2023-01-12T13:51:13.000Z,10.5
2023-01-12T13:52:30.000Z,10.5
2023-01-12T13:53:46.000Z,10.5
2023-01-12T13:55:02.000Z,10.5
2023-01-12T13:56:18.000Z,10.5
2023-01-12T13:57:35.000Z,10.5
2023-01-12T13:58:51.387Z,10.5
2023-01-12T13:59:49.636Z,10.5
2023-01-12T14:01:23.878Z,10.5
2023-01-12T14:02:40.000Z,10.5
2023-01-12T14:03:56.000Z,10.5
2023-01-12T14:05:12.000Z,10.5
2023-01-12T14:06:29.000Z,10.5
2023-01-12T14:07:45.274Z,10.5
2023-01-12T14:09:01.000Z,10.5
2023-01-12T14:10:17.880Z,10.5
2023-01-12T14:11:16.230Z,10.5
2023-01-12T14:12:49.568Z,10.5
2023-01-12T14:14:05.000Z,10.5
2023-01-12T14:15:21.000Z,10.5
2023-01-12T14:16:38.000Z,10.5
2023-01-12T14:17:54.000Z,10.5
2023-01-12T14:18:52.533Z,10.5
2023-01-12T14:20:26.000Z,10.5
2023-01-12T14:21:42.919Z,10.5
2023-01-12T14:22:59.000Z,10.5
2023-01-12T14:24:15.000Z,10.5
2023-01-12T14:25:31.000Z,10.5
2023-01-12T14:26:47.000Z,10.5
2023-01-12T14:28:03.883Z,10.6
2023-01-12T14:29:20.000Z,10.5
2023-01-12T14:30:36.269Z,10.5
2023-01-12T14:31:52.000Z,10.6
2023-01-12T14:33:16.000Z,10.6
2023-01-12T14:34:24.848Z,10.6
2023-01-12T14:35:41.000Z,10.6
2023-01-12T14:36:57.000Z,10.6
2023-01-12T14:38:13.000Z,10.6
2023-01-12T14:39:29.000Z,10.6
2023-01-12T14:40:45.000Z,10.6
2023-01-12T14:42:02.000Z,10.6
2023-01-12T14:43:18.000Z,10.6
2023-01-12T14:44:34.000Z,10.6
2023-01-12T14:45:50.000Z,10.6
2023-01-12T14:47:06.000Z,10.6
2023-01-12T14:48:23.198Z,10.6
2023-01-12T14:49:39.447Z,10.6
2023-01-12T14:50:55.687Z,10.6
2023-01-12T14:52:11.000Z,10.6
2023-01-12T14:53:28.000Z,10.7
2023-01-12T14:54:26.445Z,10.6
2023-01-12T14:56:08.000Z,10.7
2023-01-12T14:57:15.000Z,10.7
2023-01-12T14:58:32.000Z,10.7
2023-01-12T14:59:48.000Z,10.7
2023-01-12T15:00:46.537Z,10.7
2023-01-12T15:02:20.730Z,10.7
2023-01-12T15:04:53.000Z,10.7
2023-01-12T15:06:09.000Z,10.7
2023-01-12T15:07:25.000Z,10.7
2023-01-12T15:08:41.000Z,10.7
2023-01-12T15:09:57.000Z,10.7
2023-01-12T15:10:56.081Z,10.7
2023-01-12T15:12:30.000Z,10.7
2023-01-12T15:13:46.000Z,10.7
2023-01-12T15:15:02.000Z,10.7
2023-01-12T15:16:18.000Z,10.8
2023-01-12T15:17:35.000Z,10.8
2023-01-12T15:18:51.234Z,10.7
2023-01-12T15:20:06.000Z,10.7
2023-01-12T15:21:30.000Z,10.7
2023-01-12T15:22:38.000Z,10.7
2023-01-12T15:23:55.026Z,10.7
2023-01-12T15:25:11.000Z,10.7
2023-01-12T15:26:09.412Z,10.7
2023-01-12T15:27:43.000Z,10.8
2023-01-12T15:28:59.000Z,10.7
2023-01-12T15:30:16.000Z,10.7
2023-01-12T15:31:14.185Z,10.7
2023-01-12T15:32:48.000Z,10.7
2023-01-12T15:33:46.570Z,10.8
2023-01-12T15:35:20.000Z,10.8
2023-01-12T15:36:18.956Z,10.8
2023-01-12T15:37:53.000Z,10.8
2023-01-12T15:38:51.342Z,10.8
2023-01-12T15:40:25.000Z,10.8
2023-01-12T15:41:41.729Z,10.8
2023-01-12T15:42:57.000Z,10.8
2023-01-12T15:44:14.115Z,10.8
2023-01-12T15:45:30.000Z,10.8
2023-01-12T15:46:46.502Z,10.8
2023-01-12T15:47:44.693Z,10.8
2023-01-12T15:49:00.887Z,10.8
2023-01-12T15:50:35.080Z,10.8
2023-01-12T15:51:32.301Z,10.8
2023-01-12T15:53:06.000Z,10.8
2023-01-12T15:54:22.000Z,10.8
2023-01-12T15:55:38.000Z,10.8
2023-01-12T15:56:37.074Z,10.8
2023-01-12T15:58:11.391Z,10.8
2023-01-12T15:59:27.000Z,10.8
2023-01-12T16:00:43.773Z,10.8
2023-01-12T16:01:41.966Z,10.8
2023-01-12T16:03:16.157Z,10.8
2023-01-12T16:04:32.349Z,10.8
2023-01-12T16:05:48.000Z,10.8
2023-01-12T16:07:04.000Z,10.8
2023-01-12T16:08:20.000Z,10.8
2023-01-12T16:09:37.131Z,10.9
2023-01-12T16:10:53.000Z,10.9
2023-01-12T16:11:51.511Z,10.9
2023-01-12T16:13:25.000Z,10.9
2023-01-12T16:14:23.898Z,10.9
2023-01-12T16:15:58.000Z,10.9
2023-01-12T16:16:56.283Z,10.9
2023-01-12T16:18:30.000Z,10.8
2023-01-12T16:19:46.669Z,10.8
2023-01-12T16:21:02.000Z,10.8
2023-01-12T16:22:19.000Z,10.9
2023-01-12T16:23:35.000Z,10.9
2023-01-12T16:24:33.557Z,10.9
2023-01-12T16:25:48.821Z,10.9
2023-01-12T16:27:23.000Z,10.9
2023-01-12T16:28:21.208Z,10.9
2023-01-12T16:29:55.401Z,10.9
2023-01-12T16:30:53.594Z,10.9
2023-01-12T16:32:27.000Z,10.9
2023-01-12T16:33:43.000Z,10.9
2023-01-12T16:34:59.000Z,10.9
2023-01-12T16:36:15.000Z,10.9
2023-01-12T16:37:31.000Z,10.9
2023-01-12T16:38:29.765Z,10.9
2023-01-12T16:39:45.958Z,10.9
2023-01-12T16:41:02.151Z,10.9
2023-01-12T16:42:36.000Z,10.9
2023-01-12T16:43:52.000Z,10.9
2023-01-12T16:45:08.000Z,10.9
2023-01-12T16:46:24.000Z,10.9
2023-01-12T16:47:41.000Z,11
2023-01-12T16:48:57.309Z,11
2023-01-12T16:50:13.000Z,11
2023-01-12T16:51:11.694Z,10.9
2023-01-12T16:52:45.000Z,10.9
2023-01-12T16:53:43.109Z,10.9
2023-01-12T16:55:17.000Z,10.9
2023-01-12T16:56:15.495Z,10.9
2023-01-12T16:57:49.000Z,11
2023-01-12T16:59:05.000Z,10.9
2023-01-12T17:00:22.000Z,10.9
2023-01-12T17:01:20.268Z,10.9
2023-01-12T17:02:54.000Z,10.9
2023-01-12T17:03:52.654Z,10.9
2023-01-12T17:05:26.846Z,10.9
2023-01-12T17:06:43.031Z,10.9
2023-01-12T17:07:59.000Z,10.9
2023-01-12T17:08:57.426Z,10.9
2023-01-12T17:10:31.000Z,10.9
2023-01-12T17:11:47.812Z,10.9
2023-01-12T17:13:04.000Z,10.9
2023-01-12T17:14:02.198Z,10.9
2023-01-12T17:15:36.000Z,11
2023-01-12T17:16:51.600Z,11
2023-01-12T17:18:07.000Z,11
2023-01-12T17:19:05.984Z,11
2023-01-12T17:20:40.000Z,10.9
2023-01-12T17:21:38.369Z,10.9
2023-01-12T17:23:12.000Z,10.9
2023-01-12T17:24:28.755Z,11
2023-01-12T17:25:44.000Z,11
2023-01-12T17:26:43.141Z,11
2023-01-12T17:28:17.000Z,11
2023-01-12T17:29:15.527Z,11
2023-01-12T17:30:49.000Z,11
2023-01-12T17:32:05.903Z,11
2023-01-12T17:33:22.105Z,11
2023-01-12T17:34:20.298Z,11
2023-01-12T17:35:54.000Z,11
2023-01-12T17:37:10.684Z,11
2023-01-12T17:38:26.000Z,11
2023-01-12T17:39:43.077Z,11
2023-01-12T17:40:41.263Z,11
2023-01-12T17:41:57.456Z,11
2023-01-12T17:43:31.000Z,11.1
2023-01-12T17:44:47.847Z,11.1
2023-01-12T17:46:04.033Z,11.1
2023-01-12T17:47:02.228Z,11